Time;durP1;ratioP1;P1;durP2;ratioP2;P2;SDS_P1;SDS_P2;PMS_P1;PMS_P2;Temp;Humidity;BMP_temperature;BMP_pressure;BME280_temperature;BME280_humidity;BME280_pressure;Samples;Min_cycle;Max_cycle;Signal;HPM_P1;HPM_P2
2024/03/05 00:01:50;;;;;;;39.70;19.00;;;;;;;7.47;76.86;100473.80;110892;1206;139983;-71
2024/03/05 00:04:19;;;;;;;42.90;19.30;;;;;;;7.44;76.85;100472.65;111007;1211;107724;-71
2024/03/05 00:06:44;;;;;;;47.40;19.80;;;;;;;7.43;76.87;100479.98;110920;1206;97723;-71
2024/03/05 00:09:09;;;;;;;43.30;19.00;;;;;;;7.40;76.86;100476.86;110879;1206;138631;-71
2024/03/05 00:11:35;;;;;;;37.80;18.90;;;;;;;7.40;76.76;100477.96;110915;1206;96706;-71
2024/03/05 00:14:01;;;;;;;42.20;19.20;;;;;;;7.38;76.72;100481.05;110739;1206;138592;-72
2024/03/05 00:16:27;;;;;;;49.20;19.10;;;;;;;7.32;76.62;100479.98;110945;1206;97610;-71
2024/03/05 00:18:52;;;;;;;37.50;18.30;;;;;;;7.28;76.54;100479.94;110929;1211;109847;-71
2024/03/05 00:21:17;;;;;;;44.70;19.70;;;;;;;7.26;76.66;100477.88;110802;1206;138821;-71
2024/03/05 00:23:43;;;;;;;43.80;18.70;;;;;;;7.27;76.71;100480.88;110908;1211;97704;-71
2024/03/05 00:26:08;;;;;;;44.90;18.50;;;;;;;7.27;76.60;100478.73;110791;1206;139799;-71
2024/03/05 00:28:34;;;;;;;42.90;19.20;;;;;;;7.26;76.66;100477.51;110864;1206;97800;-71
2024/03/05 00:30:59;;;;;;;43.00;19.40;;;;;;;7.24;76.64;100479.55;110848;1206;107839;-71
2024/03/05 00:33:25;;;;;;;43.50;20.10;;;;;;;7.21;76.56;100484.98;110703;1211;139181;-71
2024/03/05 00:35:51;;;;;;;48.40;19.40;;;;;;;7.20;76.59;100481.43;110948;1206;97578;-71
2024/03/05 00:38:16;;;;;;;39.20;19.50;;;;;;;7.21;76.54;100479.65;110768;1206;138916;-71
2024/03/05 00:40:41;;;;;;;41.60;19.00;;;;;;;7.19;76.45;100479.88;110882;1206;96067;-71
2024/03/05 00:43:07;;;;;;;45.10;19.00;;;;;;;7.19;76.52;100480.77;110904;1211;97775;-71
2024/03/05 00:45:32;;;;;;;42.40;19.10;;;;;;;7.15;76.36;100481.60;110707;1206;138684;-71
2024/03/05 00:47:57;;;;;;;39.50;20.20;;;;;;;7.10;76.41;100486.92;110927;1206;97708;-71
2024/03/05 00:50:23;;;;;;;41.30;19.20;;;;;;;7.10;76.48;100489.06;110703;1206;139572;-71
2024/03/05 00:52:49;;;;;;;45.20;19.50;;;;;;;7.08;76.30;100487.52;110959;1206;97627;-71
2024/03/05 00:55:15;;;;;;;38.90;19.70;;;;;;;7.06;76.43;100485.27;110849;1206;99428;-71
2024/03/05 00:57:40;;;;;;;44.20;19.10;;;;;;;7.05;76.31;100484.59;110763;1211;139993;-71
2024/03/05 01:00:07;;;;;;;49.30;19.10;;;;;;;7.05;76.40;100477.30;111050;1206;98170;-71
2024/03/05 01:02:33;;;;;;;38.50;19.60;;;;;;;7.05;76.34;100481.21;110718;1206;138707;-71
2024/03/05 01:04:58;;;;;;;40.80;19.80;;;;;;;7.04;76.37;100481.95;110880;1209;97677;-71
2024/03/05 01:07:23;;;;;;;42.20;19.20;;;;;;;7.04;76.34;100481.41;110825;1209;97572;-71
2024/03/05 01:09:49;;;;;;;41.40;18.90;;;;;;;7.03;76.23;100482.34;110671;1211;139128;-71
2024/03/05 01:12:15;;;;;;;40.10;18.10;;;;;;;7.00;76.20;100479.78;110837;1211;97584;-71
2024/03/05 01:14:41;;;;;;;40.00;18.80;;;;;;;6.96;76.12;100483.82;110761;1206;138506;-71
2024/03/05 01:17:08;;;;;;;43.90;18.40;;;;;;;6.94;76.17;100484.75;110872;1209;98377;-71
2024/03/05 01:19:34;;;;;;;38.00;18.30;;;;;;;6.94;76.22;100478.36;110899;1206;98134;-71
2024/03/05 01:22:00;;;;;;;40.50;16.90;;;;;;;6.93;76.14;100484.45;110698;1210;138719;-71
2024/03/05 01:24:26;;;;;;;38.20;17.10;;;;;;;6.92;76.12;100479.50;110883;1206;95854;-71
2024/03/05 01:26:52;;;;;;;35.70;16.80;;;;;;;6.89;75.97;100480.98;110720;1212;138561;-71
2024/03/05 01:29:17;;;;;;;31.80;16.60;;;;;;;6.88;76.04;100484.25;110701;1208;100817;-71
2024/03/05 01:31:44;;;;;;;35.60;16.70;;;;;;;6.86;75.94;100484.85;110451;1206;97611;-71
2024/03/05 01:34:10;;;;;;;40.50;18.90;;;;;;;6.81;75.71;100487.99;110363;1209;106697;-71
2024/03/05 01:36:36;;;;;;;30.80;15.80;;;;;;;6.77;75.77;100486.33;110355;1210;97700;-71
2024/03/05 01:39:01;;;;;;;43.20;16.70;;;;;;;6.76;75.73;100482.63;110318;1206;138775;-71
2024/03/05 01:41:26;;;;;;;38.70;17.30;;;;;;;6.72;75.70;100483.11;110373;1206;101500;-71
2024/03/05 01:43:52;;;;;;;36.80;16.60;;;;;;;6.67;75.57;100487.19;110297;1207;138932;-71
2024/03/05 01:46:18;;;;;;;38.40;17.40;;;;;;;6.59;75.65;100488.50;110880;1206;97638;-71
2024/03/05 01:48:44;;;;;;;32.50;17.30;;;;;;;6.57;75.63;100493.15;110835;1209;97579;-71
2024/03/05 01:51:16;;;;;;;37.20;16.60;;;;;;;6.53;75.64;100494.14;110728;1206;138822;-71
2024/03/05 01:53:43;;;;;;;35.90;17.10;;;;;;;6.47;75.61;100493.63;110864;1206;107013;-71
2024/03/05 01:56:17;;;;;;;32.70;16.80;;;;;;;6.40;75.67;100496.13;110685;1208;139294;-71
2024/03/05 01:58:43;;;;;;;39.60;17.60;;;;;;;6.35;75.62;100493.63;110858;1206;97549;-71
2024/03/05 02:01:10;;;;;;;41.70;18.30;;;;;;;6.28;75.60;100492.23;110798;1211;97780;-71
2024/03/05 02:03:37;;;;;;;34.50;17.40;;;;;;;6.23;75.50;100493.43;110522;1209;139348;-71
2024/03/05 02:06:07;;;;;;;42.00;17.80;;;;;;;6.15;75.38;100495.42;110806;1212;97584;-71
2024/03/05 02:08:32;;;;;;;37.60;18.50;;;;;;;6.10;75.47;100491.29;110708;1209;139225;-71
2024/03/05 02:10:57;;;;;;;35.40;17.40;;;;;;;6.09;75.54;100495.58;110845;1206;96266;-71
2024/03/05 02:13:23;;;;;;;38.00;17.80;;;;;;;6.07;75.46;100501.33;110854;1211;97766;-71
2024/03/05 02:15:49;;;;;;;33.10;16.30;;;;;;;6.01;75.48;100505.56;110676;1207;139096;-72
2024/03/05 02:18:15;;;;;;;39.30;18.70;;;;;;;5.94;75.38;100505.95;110870;1208;97802;-71
2024/03/05 02:20:40;;;;;;;37.70;18.80;;;;;;;5.90;75.51;100505.34;110874;1206;138595;-71
2024/03/05 02:23:06;;;;;;;34.60;17.10;;;;;;;5.86;75.45;100507.17;110959;1206;97320;-71
2024/03/05 02:25:31;;;;;;;40.80;19.70;;;;;;;5.82;75.49;100509.59;110867;1208;97661;-71
2024/03/05 02:27:58;;;;;;;38.40;19.30;;;;;;;5.77;75.43;100507.92;110872;1210;139172;-72
2024/03/05 02:30:23;;;;;;;38.00;18.60;;;;;;;5.74;75.57;100508.20;110896;1206;97671;-72
2024/03/05 02:32:49;;;;;;;38.70;19.20;;;;;;;5.76;75.55;100507.26;110293;1206;140460;-71
2024/03/05 02:35:14;;;;;;;46.80;19.80;;;;;;;5.72;75.48;100508.24;110434;1209;99260;-71
2024/03/05 02:37:40;;;;;;;42.70;20.10;;;;;;;5.71;75.63;100513.23;110870;1208;97587;-71
2024/03/05 02:40:08;;;;;;;43.40;19.30;;;;;;;5.73;75.52;100509.81;110870;1208;139428;-71
2024/03/05 02:42:35;;;;;;;37.40;18.70;;;;;;;5.68;75.39;100511.73;110866;1211;107595;-71
2024/03/05 02:45:05;;;;;;;42.60;18.80;;;;;;;5.64;75.48;100513.77;110737;1206;139163;-71
2024/03/05 02:47:32;;;;;;;40.50;18.30;;;;;;;5.64;75.58;100516.42;110858;1211;96631;-71
2024/03/05 02:49:59;;;;;;;55.50;19.00;;;;;;;5.61;75.62;100518.45;110876;1211;139507;-71
2024/03/05 02:52:25;;;;;;;42.20;18.00;;;;;;;5.58;75.44;100516.41;110832;1206;96442;-71
2024/03/05 02:54:51;;;;;;;41.90;19.50;;;;;;;5.53;75.40;100516.34;110893;1208;97662;-71
2024/03/05 02:57:16;;;;;;;36.80;16.10;;;;;;;5.50;75.39;100524.04;110787;1206;140018;-71
2024/03/05 02:59:41;;;;;;;33.00;17.40;;;;;;;5.43;75.29;100528.30;110856;1206;97952;-71
2024/03/05 03:02:07;;;;;;;38.10;18.00;;;;;;;5.32;75.21;100531.03;110819;1206;140077;-71
2024/03/05 03:04:32;;;;;;;36.80;17.40;;;;;;;5.29;75.44;100531.63;110824;1211;97633;-71
2024/03/05 03:06:58;;;;;;;36.70;17.60;;;;;;;5.26;75.34;100536.13;110870;1206;98215;-71
2024/03/05 03:09:23;;;;;;;41.70;19.90;;;;;;;5.21;75.49;100537.67;110711;1211;139357;-71
2024/03/05 03:11:49;;;;;;;38.50;18.50;;;;;;;5.22;75.50;100536.94;110844;1206;98169;-71
2024/03/05 03:14:14;;;;;;;38.60;17.30;;;;;;;5.23;75.47;100535.50;110763;1207;138736;-72
2024/03/05 03:16:40;;;;;;;38.60;17.30;;;;;;;5.21;75.44;100540.33;110860;1208;109748;-71
2024/03/05 03:19:06;;;;;;;37.00;16.20;;;;;;;5.17;75.45;100542.40;110852;1209;97616;-71
2024/03/05 03:21:31;;;;;;;39.70;17.40;;;;;;;5.09;75.47;100543.30;110706;1209;141367;-71
2024/03/05 03:23:56;;;;;;;34.50;16.60;;;;;;;5.05;75.55;100549.22;110844;1210;98090;-71
2024/03/05 03:26:23;;;;;;;34.60;16.90;;;;;;;5.01;75.40;100547.39;110718;1207;138716;-72
2024/03/05 03:28:49;;;;;;;33.50;16.60;;;;;;;4.96;75.62;100545.18;110999;1209;97657;-71
2024/03/05 03:31:14;;;;;;;34.00;15.50;;;;;;;4.94;75.63;100544.52;110818;1208;97601;-71
2024/03/05 03:33:40;;;;;;;37.90;16.20;;;;;;;4.89;75.66;100542.33;110719;1211;138259;-71
2024/03/05 03:36:06;;;;;;;34.90;15.50;;;;;;;4.82;75.63;100546.55;110873;1206;97552;-71
2024/03/05 03:38:34;;;;;;;49.20;16.50;;;;;;;4.78;75.68;100543.98;110757;1211;138694;-71
2024/03/05 03:40:59;;;;;;;35.10;15.60;;;;;;;4.75;75.62;100547.75;110846;1209;97694;-71
2024/03/05 03:43:25;;;;;;;29.70;15.30;;;;;;;4.74;75.77;100548.31;110826;1210;97789;-71
2024/03/05 03:45:50;;;;;;;28.00;14.10;;;;;;;4.77;75.84;100545.40;110791;1207;138546;-71
2024/03/05 03:48:16;;;;;;;30.10;15.20;;;;;;;4.79;75.72;100547.50;110839;1211;97687;-71
2024/03/05 03:50:41;;;;;;;34.90;14.90;;;;;;;4.79;75.82;100549.81;110762;1211;138434;-71
2024/03/05 03:53:07;;;;;;;34.90;14.30;;;;;;;4.76;75.73;100552.17;110942;1211;97710;-72
2024/03/05 03:55:33;;;;;;;29.40;14.70;;;;;;;4.74;75.89;100552.91;110801;1211;96459;-71
2024/03/05 03:57:58;;;;;;;38.20;14.10;;;;;;;4.70;75.73;100554.59;110694;1209;138822;-71
2024/03/05 04:00:24;;;;;;;31.90;13.60;;;;;;;4.69;75.75;100555.86;110882;1207;98224;-71
2024/03/05 04:02:49;;;;;;;34.70;13.80;;;;;;;4.70;75.94;100561.32;110750;1211;139753;-71
2024/03/05 04:05:16;;;;;;;36.60;14.40;;;;;;;4.69;76.03;100560.11;110913;1211;97552;-71
2024/03/05 04:07:42;;;;;;;27.20;11.60;;;;;;;4.71;75.92;100559.70;110831;1209;97575;-71
2024/03/05 04:10:10;;;;;;;33.50;13.60;;;;;;;4.71;75.88;100562.54;110698;1211;138610;-71
2024/03/05 04:12:36;;;;;;;26.40;12.40;;;;;;;4.68;75.81;100561.90;110846;1209;97635;-71
2024/03/05 04:15:03;;;;;;;29.50;11.70;;;;;;;4.69;76.02;100562.59;110826;1211;138420;-71
2024/03/05 04:17:29;;;;;;;28.30;12.30;;;;;;;4.72;76.07;100561.10;110860;1206;97588;-71
2024/03/05 04:19:55;;;;;;;32.10;12.30;;;;;;;4.73;76.07;100566.21;110811;1209;138726;-71
2024/03/05 04:22:21;;;;;;;25.70;11.50;;;;;;;4.71;76.04;100566.95;110894;1209;97571;-71
2024/03/05 04:24:52;;;;;;;29.70;12.20;;;;;;;4.70;76.07;100570.34;110917;1208;96871;-73
2024/03/05 04:27:19;;;;;;;28.60;11.20;;;;;;;4.68;76.13;100570.03;110693;1209;139655;-71
2024/03/05 04:29:47;;;;;;;25.50;10.30;;;;;;;4.64;75.91;100564.27;110906;1209;97868;-71
2024/03/05 04:32:14;;;;;;;20.10;10.60;;;;;;;4.68;76.31;100565.80;110724;1208;138920;-71
2024/03/05 04:34:42;;;;;;;31.90;12.50;;;;;;;4.70;76.25;100568.39;110880;1211;98036;-71
2024/03/05 04:37:10;;;;;;;27.80;11.20;;;;;;;4.68;76.20;100567.55;110958;1206;99445;-71
2024/03/05 04:39:38;;;;;;;25.20;10.70;;;;;;;4.67;76.19;100570.39;110794;1209;138321;-71
2024/03/05 04:42:03;;;;;;;26.50;10.30;;;;;;;4.70;76.27;100573.17;110938;1206;97753;-71
2024/03/05 04:44:29;;;;;;;22.40;9.70;;;;;;;4.68;76.34;100573.05;110729;1210;138649;-71
2024/03/05 04:46:56;;;;;;;29.50;11.70;;;;;;;4.64;76.17;100579.15;110926;1209;97585;-71
2024/03/05 04:49:21;;;;;;;22.30;10.80;;;;;;;4.61;76.44;100582.04;110786;1209;107530;-71
2024/03/05 04:51:46;;;;;;;24.90;10.10;;;;;;;4.59;76.34;100580.67;110705;1211;138899;-71
2024/03/05 04:54:12;;;;;;;22.80;10.30;;;;;;;4.60;76.32;100585.23;110933;1207;96475;-71
2024/03/05 04:56:38;;;;;;;23.30;10.50;;;;;;;4.61;76.22;100585.40;110713;1211;138816;-71
2024/03/05 04:59:04;;;;;;;22.70;10.10;;;;;;;4.60;76.41;100582.07;110864;1209;96125;-71
2024/03/05 05:01:29;;;;;;;24.40;9.90;;;;;;;4.60;76.54;100582.59;110912;1208;97684;-71
2024/03/05 05:03:55;;;;;;;21.10;9.90;;;;;;;4.61;76.56;100580.96;110832;1206;139010;-71
2024/03/05 05:06:21;;;;;;;20.40;9.80;;;;;;;4.62;76.57;100577.95;110825;1211;97742;-71
2024/03/05 05:08:49;;;;;;;21.40;9.90;;;;;;;4.60;76.49;100576.73;110832;1208;138574;-71
2024/03/05 05:11:14;;;;;;;27.80;12.00;;;;;;;4.63;76.50;100580.05;110839;1206;97710;-71
2024/03/05 05:13:40;;;;;;;24.80;11.80;;;;;;;4.62;76.40;100575.45;110860;1208;97677;-71
2024/03/05 05:16:08;;;;;;;22.50;10.40;;;;;;;4.60;76.63;100577.63;110836;1210;138451;-71
2024/03/05 05:18:34;;;;;;;20.20;9.90;;;;;;;4.63;76.75;100576.32;110819;1209;97562;-71
2024/03/05 05:21:00;;;;;;;23.40;10.80;;;;;;;4.66;76.62;100581.05;110819;1211;138462;-71
2024/03/05 05:23:25;;;;;;;23.50;11.70;;;;;;;4.61;76.55;100580.97;110929;1208;97566;-71
2024/03/05 05:25:50;;;;;;;29.30;10.90;;;;;;;4.61;76.65;100583.80;110760;1211;139563;-71
2024/03/05 05:28:16;;;;;;;22.40;10.40;;;;;;;4.62;76.70;100582.55;110782;1206;96460;-71
2024/03/05 05:30:42;;;;;;;20.30;11.20;;;;;;;4.62;76.81;100586.08;110970;1211;97690;-71
2024/03/05 05:33:07;;;;;;;21.60;11.60;;;;;;;4.62;76.76;100586.09;110764;1206;138724;-71
2024/03/05 05:35:37;;;;;;;19.90;9.20;;;;;;;4.62;76.81;100588.57;110818;1208;99538;-71
2024/03/05 05:38:03;;;;;;;24.30;11.50;;;;;;;4.63;76.72;100589.44;110773;1209;138455;-71
2024/03/05 05:40:28;;;;;;;23.80;11.50;;;;;;;4.63;76.93;100589.61;110804;1211;98181;-71
2024/03/05 05:42:54;;;;;;;29.80;10.70;;;;;;;4.63;76.78;100589.09;110917;1209;97538;-71
2024/03/05 05:45:21;;;;;;;24.40;10.90;;;;;;;4.64;77.02;100588.00;110717;1209;138516;-70
2024/03/05 05:47:51;;;;;;;24.00;10.90;;;;;;;4.66;77.06;100587.23;110888;1209;97571;-71
2024/03/05 05:50:18;;;;;;;26.50;11.40;;;;;;;4.69;76.73;100590.91;110764;1211;138645;-72
2024/03/05 05:52:48;;;;;;;20.20;10.90;;;;;;;4.67;76.80;100593.43;110877;1211;97694;-71
2024/03/05 05:55:15;;;;;;;19.60;11.30;;;;;;;4.65;76.86;100591.87;110739;1211;98569;-71
2024/03/05 05:57:47;;;;;;;22.60;10.90;;;;;;;4.65;77.16;100593.64;110290;1209;138359;-71
2024/03/05 06:00:22;;;;;;;19.10;10.60;;;;;;;4.66;76.99;100597.16;110381;1211;98470;-71
2024/03/05 06:02:55;;;;;;;24.80;11.40;;;;;;;4.66;77.12;100590.42;110327;1206;140308;-72
2024/03/05 06:05:28;;;;;;;31.80;12.10;;;;;;;4.68;77.21;100593.92;110485;1211;110989;-72
2024/03/05 06:07:53;;;;;;;23.00;11.00;;;;;;;4.71;77.09;100592.45;110560;1210;139371;-72
2024/03/05 06:10:19;;;;;;;29.30;12.30;;;;;;;4.75;77.11;100596.08;110363;1207;96370;-71
2024/03/05 06:12:45;;;;;;;27.80;11.50;;;;;;;4.76;77.15;100599.95;110841;1210;97696;-70
2024/03/05 06:15:13;;;;;;;30.00;12.70;;;;;;;4.76;77.23;100604.38;110839;1211;138834;-73
2024/03/05 06:17:40;;;;;;;25.40;11.40;;;;;;;4.77;77.39;100601.89;110873;1208;99446;-71
2024/03/05 06:20:10;;;;;;;25.10;11.80;;;;;;;4.76;77.21;100598.91;110764;1209;138899;-71
2024/03/05 06:22:37;;;;;;;29.00;11.90;;;;;;;4.74;77.31;100599.99;110672;1206;97687;-71
2024/03/05 06:25:02;;;;;;;23.80;11.30;;;;;;;4.73;77.21;100600.02;110725;1211;97605;-74
2024/03/05 06:27:27;;;;;;;21.20;12.00;;;;;;;4.72;77.25;100599.33;110669;1207;138501;-70
2024/03/05 06:29:53;;;;;;;25.30;12.80;;;;;;;4.73;77.26;100602.67;110858;1206;97699;-71
2024/03/05 06:32:19;;;;;;;34.30;13.60;;;;;;;4.74;77.34;100603.38;110718;1206;138614;-70
2024/03/05 06:34:44;;;;;;;26.20;11.30;;;;;;;4.74;77.41;100605.48;110960;1211;99295;-71
2024/03/05 06:37:10;;;;;;;27.50;12.90;;;;;;;4.73;77.42;100607.80;110947;1207;99474;-70
2024/03/05 06:39:41;;;;;;;29.40;11.90;;;;;;;4.75;77.55;100608.48;110779;1211;139585;-70
2024/03/05 06:42:10;;;;;;;29.80;13.00;;;;;;;4.78;77.62;100609.30;110899;1210;97692;-70
2024/03/05 06:44:36;;;;;;;26.30;12.30;;;;;;;4.81;77.49;100610.65;110683;1206;138286;-70
2024/03/05 06:47:09;;;;;;;28.40;12.40;;;;;;;4.81;77.44;100610.64;110904;1212;97665;-70
2024/03/05 06:49:39;;;;;;;23.70;12.80;;;;;;;4.83;77.51;100613.98;110870;1211;99205;-70
2024/03/05 06:57:34;;;;;;;27.00;13.30;;;;;;;4.87;77.68;100616.02;110700;1206;138745;-70
2024/03/05 06:59:59;;;;;;;22.90;12.70;;;;;;;4.88;77.59;100616.86;110838;1211;102263;-69
2024/03/05 07:02:30;;;;;;;28.70;12.60;;;;;;;4.86;77.65;100616.55;110623;1206;139994;-70
2024/03/05 07:04:55;;;;;;;27.10;12.70;;;;;;;4.88;77.69;100616.34;110394;1207;98461;-70
2024/03/05 07:07:21;;;;;;;31.10;12.90;;;;;;;4.93;77.69;100619.80;110892;1212;97600;-69
2024/03/05 07:09:47;;;;;;;24.20;12.50;;;;;;;4.94;77.66;100617.13;110844;1211;139124;-68
2024/03/05 07:12:12;;;;;;;28.10;12.30;;;;;;;4.95;77.63;100618.69;110896;1211;108422;-70
2024/03/05 07:14:38;;;;;;;22.60;12.30;;;;;;;4.97;77.62;100617.41;110745;1208;139750;-70
2024/03/05 07:17:06;;;;;;;26.70;13.10;;;;;;;4.96;77.61;100620.61;110926;1211;97680;-70
2024/03/05 07:19:32;;;;;;;26.20;12.00;;;;;;;4.97;77.78;100619.89;110943;1211;99402;-69
2024/03/05 07:21:57;;;;;;;31.00;12.40;;;;;;;4.98;77.60;100618.45;110783;1212;138902;-69
2024/03/05 07:24:22;;;;;;;43.40;12.90;;;;;;;4.98;77.72;100622.52;110831;1211;97693;-69
2024/03/05 07:26:48;;;;;;;40.10;13.20;;;;;;;5.01;77.82;100624.41;110762;1212;139837;-70
2024/03/05 07:29:13;;;;;;;22.20;12.00;;;;;;;5.02;77.68;100628.29;110749;1211;97831;-69
2024/03/05 07:31:38;;;;;;;26.30;12.50;;;;;;;5.04;77.65;100631.96;110808;1211;98285;-69
2024/03/05 07:34:03;;;;;;;23.80;12.40;;;;;;;5.02;77.69;100634.65;110746;1206;139343;-69
2024/03/05 07:36:29;;;;;;;25.60;12.60;;;;;;;5.03;77.75;100636.04;110903;1212;98008;-69
2024/03/05 07:38:54;;;;;;;30.00;13.60;;;;;;;5.04;77.82;100639.92;110575;1211;138726;-69
2024/03/05 07:41:20;;;;;;;21.70;11.60;;;;;;;5.05;77.66;100639.38;110537;1206;100286;-68
2024/03/05 07:43:45;;;;;;;24.10;11.20;;;;;;;5.04;77.65;100643.64;110313;1212;138967;-68
2024/03/05 07:46:11;;;;;;;24.00;12.60;;;;;;;5.06;77.81;100645.21;110828;1206;96858;-69
2024/03/05 07:48:37;;;;;;;28.90;12.30;;;;;;;5.06;77.77;100642.91;110941;1206;97649;-68
2024/03/05 07:51:02;;;;;;;24.60;11.50;;;;;;;5.05;77.92;100646.45;110690;1208;138479;-70
2024/03/05 07:53:28;;;;;;;24.70;12.00;;;;;;;5.03;77.90;100648.79;110844;1207;96512;-69
2024/03/05 07:55:53;;;;;;;26.40;11.60;;;;;;;5.04;77.80;100650.73;110695;1219;138888;-69
2024/03/05 07:58:19;;;;;;;26.20;12.70;;;;;;;5.06;78.00;100651.75;110704;1212;98065;-69
2024/03/05 08:00:44;;;;;;;28.00;11.30;;;;;;;5.08;77.89;100652.25;110870;1211;97608;-68
2024/03/05 08:03:10;;;;;;;30.40;11.10;;;;;;;5.07;77.78;100654.91;110660;1206;138594;-68
2024/03/05 08:05:35;;;;;;;25.20;11.80;;;;;;;5.08;77.98;100654.17;110776;1212;98937;-68
2024/03/05 08:08:01;;;;;;;27.20;12.30;;;;;;;5.11;77.93;100654.14;110607;1211;138927;-67
2024/03/05 08:10:26;;;;;;;30.00;12.90;;;;;;;5.10;77.88;100656.45;110608;1207;97569;-68
2024/03/05 08:12:54;;;;;;;25.90;12.90;;;;;;;5.13;78.00;100660.46;110743;1206;98010;-69
2024/03/05 08:15:21;;;;;;;25.60;11.70;;;;;;;5.15;78.22;100659.17;110800;1206;138645;-68
2024/03/05 08:17:48;;;;;;;21.70;11.90;;;;;;;5.15;78.05;100660.06;110904;1206;98156;-69
2024/03/05 08:20:17;;;;;;;23.00;11.40;;;;;;;5.15;77.92;100664.85;110805;1206;139713;-72
2024/03/05 08:22:46;;;;;;;29.40;11.70;;;;;;;5.14;77.97;100666.48;110783;1212;99719;-70
2024/03/05 08:25:15;;;;;;;35.30;12.80;;;;;;;5.15;78.10;100669.10;110760;1211;108046;-71
2024/03/05 08:28:08;;;;;;;26.40;12.30;;;;;;;5.18;78.06;100668.15;110525;1212;138837;-69
2024/03/05 08:30:33;;;;;;;33.40;13.70;;;;;;;5.20;78.01;100670.39;110811;1206;96302;-69
2024/03/05 08:33:03;;;;;;;24.70;12.00;;;;;;;5.20;78.10;100664.19;110694;1212;139129;-71
2024/03/05 08:35:31;;;;;;;25.10;12.10;;;;;;;5.22;78.24;100666.80;110955;1209;99348;-72
2024/03/05 08:37:58;;;;;;;25.30;12.50;;;;;;;5.27;78.19;100667.57;110699;1206;140934;-70
2024/03/05 08:40:25;;;;;;;28.90;12.50;;;;;;;5.27;78.07;100670.04;110676;1207;97556;-71
2024/03/05 08:42:54;;;;;;;31.60;12.70;;;;;;;5.24;78.02;100671.88;110778;1212;97681;-70
2024/03/05 08:45:22;;;;;;;27.00;11.90;;;;;;;5.28;78.11;100668.42;110707;1211;138416;-73
2024/03/05 08:47:49;;;;;;;28.60;12.00;;;;;;;5.32;78.04;100670.47;110759;1206;98386;-71
2024/03/05 08:50:15;;;;;;;29.70;11.90;;;;;;;5.31;78.13;100671.74;110724;1212;138615;-71
2024/03/05 08:52:41;;;;;;;24.60;11.40;;;;;;;5.29;78.16;100670.20;110889;1206;97569;-70
2024/03/05 08:55:08;;;;;;;23.60;12.00;;;;;;;5.34;78.35;100673.45;111055;1212;97565;-70
2024/03/05 08:57:45;;;;;;;27.20;12.80;;;;;;;5.39;78.42;100672.09;110777;1212;139654;-72
2024/03/05 09:00:17;;;;;;;25.90;11.30;;;;;;;5.38;78.28;100670.18;110813;1211;107708;-70
2024/03/05 09:02:47;;;;;;;19.60;11.10;;;;;;;5.39;78.28;100679.17;113052;1206;139296;-70
2024/03/05 09:05:13;;;;;;;28.10;12.70;;;;;;;5.40;78.18;100679.69;111588;1207;97597;-69
2024/03/05 09:07:40;;;;;;;25.30;11.40;;;;;;;5.41;78.34;100680.20;110714;1206;99073;-69
2024/03/05 09:10:10;;;;;;;28.40;12.70;;;;;;;5.42;78.24;100673.27;110679;1212;139725;-68
2024/03/05 09:12:36;;;;;;;26.60;11.70;;;;;;;5.42;78.20;100678.95;110816;1212;107504;-68
2024/03/05 09:15:05;;;;;;;29.00;12.60;;;;;;;5.35;78.14;100677.13;110655;1212;139303;-69
2024/03/05 09:17:31;;;;;;;28.70;12.00;;;;;;;5.35;78.25;100677.50;110871;1212;96455;-70
2024/03/05 09:19:56;;;;;;;23.00;11.70;;;;;;;5.37;78.35;100676.75;110764;1210;139402;-70
2024/03/05 09:22:21;;;;;;;30.00;11.70;;;;;;;5.40;78.30;100678.98;110841;1212;98910;-69
2024/03/05 09:24:49;;;;;;;22.60;11.20;;;;;;;5.42;78.29;100678.58;110752;1211;97670;-69
2024/03/05 09:27:14;;;;;;;24.90;10.60;;;;;;;5.42;78.32;100680.70;110601;1206;140068;-69
2024/03/05 09:29:41;;;;;;;24.80;10.70;;;;;;;5.41;78.38;100680.56;110857;1212;97748;-69
2024/03/05 09:32:08;;;;;;;21.00;10.30;;;;;;;5.42;78.38;100679.83;110579;1209;139225;-69
2024/03/05 09:34:33;;;;;;;23.40;11.00;;;;;;;5.43;78.29;100685.48;110700;1212;97687;-70
2024/03/05 09:36:58;;;;;;;21.20;10.20;;;;;;;5.45;78.43;100681.19;110775;1206;97702;-69
2024/03/05 09:39:24;;;;;;;24.50;11.50;;;;;;;5.44;78.32;100686.86;110540;1206;138499;-69
2024/03/05 09:41:49;;;;;;;25.20;12.00;;;;;;;5.42;78.38;100689.04;110837;1209;97638;-69
2024/03/05 09:44:15;;;;;;;22.60;11.50;;;;;;;5.43;78.41;100691.31;110696;1206;138631;-71
2024/03/05 09:46:48;;;;;;;27.70;11.30;;;;;;;5.45;78.38;100687.20;111407;1206;97592;-70
2024/03/05 09:49:18;;;;;;;24.50;10.50;;;;;;;5.49;78.60;100689.61;110749;1211;99992;-69
2024/03/05 09:51:46;;;;;;;43.50;12.50;;;;;;;5.50;78.38;100690.80;110598;1206;139831;-70
2024/03/05 09:54:12;;;;;;;22.80;11.20;;;;;;;5.50;78.39;100691.70;110776;1206;97674;-69
2024/03/05 09:56:41;;;;;;;22.70;11.40;;;;;;;5.52;78.49;100686.50;110555;1211;139923;-69
2024/03/05 09:59:10;;;;;;;32.20;12.30;;;;;;;5.54;78.42;100689.13;110760;1206;112088;-68
2024/03/05 10:01:36;;;;;;;24.50;11.20;;;;;;;5.55;78.44;100693.17;110921;1211;100083;-68
2024/03/05 10:04:04;;;;;;;28.70;11.90;;;;;;;5.55;78.43;100697.08;110752;1206;138909;-69
2024/03/05 10:06:29;;;;;;;31.00;12.10;;;;;;;5.53;78.26;100695.52;110869;1212;97801;-67
2024/03/05 10:08:55;;;;;;;20.00;10.40;;;;;;;5.54;78.21;100697.46;110731;1209;140818;-68
2024/03/05 10:11:22;;;;;;;23.90;11.80;;;;;;;5.52;78.29;100698.02;110602;1212;97712;-69
2024/03/05 10:13:47;;;;;;;26.60;13.00;;;;;;;5.56;78.50;100698.13;110777;1211;97718;-69
2024/03/05 10:16:16;;;;;;;34.90;13.10;;;;;;;5.59;78.34;100698.77;110725;1206;138350;-69
2024/03/05 10:18:43;;;;;;;26.00;12.10;;;;;;;5.62;78.47;100701.90;110742;1206;111687;-70
2024/03/05 10:21:24;;;;;;;20.40;10.70;;;;;;;5.62;78.38;100702.96;110750;1206;139452;-71
2024/03/05 10:24:02;;;;;;;22.00;11.10;;;;;;;5.63;78.51;100705.44;113199;1206;107123;-69
2024/03/05 10:26:30;;;;;;;21.40;11.40;;;;;;;5.64;78.26;100708.59;112941;1206;138865;-69
2024/03/05 10:29:07;;;;;;;21.80;11.50;;;;;;;5.63;78.43;100709.50;111948;1210;95605;-69
2024/03/05 10:31:34;;;;;;;23.70;11.60;;;;;;;5.66;78.43;100706.77;110661;1207;110461;-69
2024/03/05 10:33:59;;;;;;;25.60;11.50;;;;;;;5.67;78.47;100705.69;110677;1206;138884;-69
2024/03/05 10:36:31;;;;;;;22.10;10.40;;;;;;;5.65;78.47;100711.95;110753;1206;97639;-69
2024/03/05 10:38:57;;;;;;;21.40;10.90;;;;;;;5.65;78.46;100711.23;110735;1206;139485;-69
2024/03/05 10:41:27;;;;;;;31.20;12.30;;;;;;;5.65;78.39;100712.64;110624;1210;97751;-70
2024/03/05 10:43:54;;;;;;;24.20;11.80;;;;;;;5.68;78.47;100707.98;110830;1212;100348;-69
2024/03/05 10:46:21;;;;;;;25.50;11.90;;;;;;;5.70;78.56;100708.81;110712;1208;138291;-69
2024/03/05 10:48:50;;;;;;;28.70;13.10;;;;;;;5.69;78.40;100705.81;110674;1212;101034;-69
2024/03/05 10:51:19;;;;;;;25.70;11.30;;;;;;;5.70;78.57;100704.89;110600;1212;138682;-69
2024/03/05 10:53:44;;;;;;;24.70;12.60;;;;;;;5.70;78.51;100704.71;110752;1206;111725;-70
2024/03/05 10:56:11;;;;;;;27.50;12.20;;;;;;;5.70;78.64;100707.91;110626;1212;140363;-70
2024/03/05 10:59:11;;;;;;;21.50;11.90;;;;;;;5.71;78.56;100712.52;110763;1206;98968;-69
2024/03/05 11:01:26;;;;;;;28.10;12.70;;;;;;;5.75;78.66;100712.42;110695;1206;97709;-68
2024/03/05 11:03:55;;;;;;;25.70;12.40;;;;;;;5.80;78.60;100711.77;111789;1206;138397;-69
2024/03/05 11:06:21;;;;;;;35.90;13.00;;;;;;;5.81;78.41;100708.55;111020;1211;100344;-69
2024/03/05 11:08:51;;;;;;;24.50;11.60;;;;;;;5.78;78.55;100708.10;110890;1214;138670;-71